South Petherton, United Kingdom
Current Conditions -  °F | °C
As of 10:50 AM on Friday 24 Oct 2014 (Local Time) from EGDY Reporting Station
Light Rain Light Rain  
Wind Chill: 61°   Ceiling: Unl
Heat Index: 61°   Visibility: 6mi
Dew Point: 57°   Wind: 10mph
Humidity: 88%   Direction: 10°N
Pressure: 29.94"   Gusts: NA
Location:  50.95°N, 2.81°W
Report Text: EGDY 240950Z 01009KT 9999 -RA FEW010 SCT020 16/14 Q1014 WHT TEMPO SCT010 GRN
Loading
Personal Weather Stations






























Interactive Weather Map
Tropical Storm Tracking
New forecast layout! Learn more

10-Day Weather Forecast

Advertisements
Track Severe Weather on mobile